Manhattan, KS

08:04 AM CDT del 23 Ottobre 2014 (GMT -0500)
Manhattan Regional | Change Station
CLOSE
Current Station
Aeroporto
Location: Manhattan,
Altitudine: 1056 ft
Stazioni meteo nelle vicinanze

Alt. 1056 ft 39.14 °N, 96.68 °W | Updated 12 minutes ago

Coperto
Coperto
61 °F
Sembra 61 °F
N
4
Vento Variabile Vento da SSO

Oggi
Massima -- | Minima -- °F
--% Possibilità di precip.
Ieri
Massima -- | Minima -- °F
Precip. -- in
7:44 AM 6:36 PM
Luna calante, 0% visible
Pressione 30.06 in
Visibilità 2.5 miglia
Nuvole Alcuni 1100 ft
Coperto 1500 ft
Punto di rugiada 60 °F
Umidità 97%
Piovosità 0.30 in
Spessore del manto nevoso Non disponibile.
Raggi UV 0 fuori da 12
Polline .90 fuori da 12
Qualità dell'aria Non disponibile.
Flu Activity No Activity
METAR KMHK 231252Z 20003KT 2 1/2SM BR FEW011 OVC015 16/16 A3007 RMK AO2 SLP177 T01610156

More Conditions Fewer Conditions

Pressione 30.06 in
Visibilità 2.5 miglia
Nuvole Alcuni 1100 ft
Coperto 1500 ft
Punto di rugiada 60 °F
Umidità 97%
Piovosità 0.30 in
Spessore del manto nevoso Non disponibile.
Raggi UV 0 fuori da 12
Polline .90 fuori da 12
Qualità dell'aria Non disponibile.
Flu Activity No Activity
METAR KMHK 231252Z 20003KT 2 1/2SM BR FEW011 OVC015 16/16 A3007 RMK AO2 SLP177 T01610156

More Conditions Fewer Conditions

10-Day Weather Forecast

Almanac

Astronomia

Oct. 23, 2014 Alba Tramonto
Ora attuale 07:44 CDT 18:36 CDT
Crepuscolo civile 07:17 CDT 19:03 CDT
Crepuscolo nautico 06:45 CDT 19:34 CDT
Crepuscolo astronomico 06:14 CDT 20:05 CDT
Luna 07:25 CDT 18:38 CDT
Estensione della luce visibile 11h 46m
Lunghezza del giorno
10h 52m
Tomorrow will be 2m 22s shorter.
Luna calante, 0% of the Moon is Illuminated
Oggi
Luna calante
Ott 23
Nuovo
Ott 30
Primo quarto
Nov 6
Luna piena
Nov 14
Ultimo quarto

Gli estremi di oggi

State Highs State Lows

Community

WunderPhotos

Upload Photos

1,764,222 foto caricate!

Nearby

Profondità neve

Stazione Profondità Altitudine
Non sono state evidenziate nuove nevicate

Attività sismica

Città  Distanza Mag. Data & Ora
Non sono state riportate attività sismiche nelle vicinanze.
Minimo Magnitudo Mostrato è 2.5.

Temperature delle acque costiere

Località Temperatura
Nessun dato dalle stazioni

Stazioni meteo nelle vicinanze